Thurman, Ohio
Current Conditions -  °F | °C
As of 2:55 PM on Sunday 23 Nov 2014 (Local Time) from K3I2 Reporting Station
Scattered Clouds Scattered Clouds  
Wind Chill: 66°   Ceiling: Unl
Heat Index: 66°   Visibility: 10mi
Dew Point: 37°   Wind: 10mph
Humidity: 35%   Direction: 110°ESE
Pressure: 29.81"   Gusts: 17mph
Location:  38.9°N, 82.45°W
Report Text: K3I2 231955Z AUTO 11009G15KT 10SM SCT090 19/03 A2981 RMK AO2
Loading
Personal Weather Stations






























Interactive Weather Map New forecast layout! Learn more

10-Day Weather Forecast

Advertisements
Track Severe Weather on mobile